createdAt,value
2023-02-25T00:01:15.440Z,10.90
2023-02-25T00:03:43.881Z,11.13
2023-02-25T00:06:14.629Z,10.86
2023-02-25T00:08:46.799Z,11.18
2023-02-25T00:11:16.908Z,10.85
2023-02-25T00:13:45.233Z,10.75
2023-02-25T00:16:15.054Z,11.39
2023-02-25T00:18:46.562Z,11.35
2023-02-25T00:21:16.228Z,10.87
2023-02-25T00:23:46.986Z,11.19
2023-02-25T00:26:15.014Z,10.79
2023-02-25T00:28:43.182Z,10.91
2023-02-25T00:31:15.335Z,11.65
2023-02-25T00:33:43.782Z,11.31
2023-02-25T00:36:14.562Z,11.20
2023-02-25T00:38:42.363Z,10.62
2023-02-25T00:41:12.742Z,10.98
2023-02-25T00:43:42.388Z,11.03
2023-02-25T00:46:12.051Z,11.16
2023-02-25T00:48:40.528Z,11.49
2023-02-25T00:51:09.523Z,10.70
2023-02-25T00:53:38.577Z,11.25
2023-02-25T00:56:07.820Z,11.07
2023-02-25T00:58:38.051Z,10.77
2023-02-25T01:01:08.296Z,11.31
2023-02-25T01:03:36.064Z,11.19
2023-02-25T01:06:04.137Z,11.51
2023-02-25T01:08:32.001Z,11.55
2023-02-25T01:10:59.727Z,11.35
2023-02-25T01:13:27.691Z,11.28
2023-02-25T01:15:56.932Z,11.44
2023-02-25T01:18:24.707Z,11.25
2023-02-25T01:20:53.821Z,11.63
2023-02-25T01:23:21.581Z,11.19
2023-02-25T01:25:49.347Z,11.68
2023-02-25T01:28:17.089Z,11.67
2023-02-25T01:30:45.647Z,11.23
2023-02-25T01:33:14.821Z,11.55
2023-02-25T01:35:42.585Z,11.34
2023-02-25T01:38:10.404Z,11.56
2023-02-25T01:40:38.809Z,11.32
2023-02-25T01:43:07.717Z,11.46
2023-02-25T01:45:36.337Z,11.04
2023-02-25T01:48:10.564Z,10.88
2023-02-25T01:50:46.574Z,10.90
2023-02-25T01:53:16.793Z,10.57
2023-02-25T01:55:44.978Z,10.60
2023-02-25T01:58:14.467Z,10.49
2023-02-25T02:00:42.949Z,10.87
2023-02-25T02:03:16.200Z,10.60
2023-02-25T02:05:55.987Z,11.19
2023-02-25T02:08:26.343Z,10.63
2023-02-25T02:10:55.649Z,11.47
2023-02-25T02:13:23.982Z,11.19
2023-02-25T02:16:00.855Z,10.78
2023-02-25T02:18:34.925Z,11.18
2023-02-25T02:21:21.206Z,11.80
2023-02-25T02:24:18.265Z,11.70
2023-02-25T02:26:54.549Z,11.69
2023-02-25T02:29:53.966Z,12.02
2023-02-25T02:32:33.874Z,11.77
2023-02-25T02:35:10.398Z,12.19
2023-02-25T02:37:44.850Z,11.10
2023-02-25T02:40:23.968Z,11.05
2023-02-25T02:43:05.364Z,11.64
2023-02-25T02:45:42.403Z,11.19
2023-02-25T02:48:16.694Z,11.31
2023-02-25T02:50:48.932Z,11.50
2023-02-25T02:53:22.384Z,12.01
2023-02-25T02:55:53.263Z,11.60
2023-02-25T02:58:28.888Z,11.85
2023-02-25T03:01:02.665Z,11.87
2023-02-25T03:03:37.668Z,11.89
2023-02-25T03:06:09.080Z,11.15
2023-02-25T03:08:44.788Z,12.16
2023-02-25T03:11:12.956Z,11.18
2023-02-25T03:13:41.185Z,11.17
2023-02-25T03:16:13.980Z,11.74
2023-02-25T03:18:50.254Z,11.40
2023-02-25T03:21:24.626Z,11.32
2023-02-25T03:23:52.751Z,11.13
2023-02-25T03:26:25.213Z,11.88
2023-02-25T03:28:57.943Z,11.44
2023-02-25T03:31:29.364Z,11.14
2023-02-25T03:34:03.302Z,11.89
2023-02-25T03:36:35.185Z,11.15
2023-02-25T03:39:09.883Z,11.69
2023-02-25T03:41:44.706Z,11.93
2023-02-25T03:44:18.153Z,11.69
2023-02-25T03:46:48.129Z,11.74
2023-02-25T03:49:24.566Z,11.19
2023-02-25T03:51:55.256Z,11.89
2023-02-25T03:54:23.403Z,11.50
2023-02-25T03:56:52.597Z,11.55
2023-02-25T03:59:23.685Z,11.28
2023-02-25T04:01:53.801Z,11.95
2023-02-25T04:04:23.323Z,12.49
2023-02-25T04:06:51.276Z,11.92
2023-02-25T04:09:19.512Z,11.44
2023-02-25T04:11:48.944Z,11.72
2023-02-25T04:14:18.381Z,11.90
2023-02-25T04:16:46.890Z,11.88
2023-02-25T04:19:14.673Z,12.03
2023-02-25T04:21:45.137Z,12.03
2023-02-25T04:24:16.752Z,11.85
2023-02-25T04:26:44.607Z,11.63
2023-02-25T04:29:12.488Z,11.29
2023-02-25T04:31:40.577Z,11.95
2023-02-25T04:34:08.688Z,12.09
2023-02-25T04:36:37.092Z,11.98
2023-02-25T04:39:06.933Z,11.59
2023-02-25T04:41:36.823Z,11.39
2023-02-25T04:44:05.882Z,11.61
2023-02-25T04:46:35.440Z,12.41
2023-02-25T04:49:03.975Z,12.20
2023-02-25T04:51:31.994Z,12.11
2023-02-25T04:54:00.121Z,11.73
2023-02-25T04:56:29.442Z,11.16
2023-02-25T04:58:57.802Z,11.85
2023-02-25T05:01:25.745Z,12.04
2023-02-25T05:03:56.856Z,11.36
2023-02-25T05:06:25.901Z,11.74
2023-02-25T05:08:54.166Z,10.68
2023-02-25T05:11:22.284Z,11.27
2023-02-25T05:13:51.860Z,12.03
2023-02-25T05:16:20.716Z,11.29
2023-02-25T05:18:49.080Z,11.48
2023-02-25T05:21:19.613Z,11.46
2023-02-25T05:23:49.005Z,11.53
2023-02-25T05:26:21.781Z,11.27
2023-02-25T05:28:51.594Z,10.89
2023-02-25T05:31:20.118Z,11.21
2023-02-25T05:33:48.379Z,12.06
2023-02-25T05:36:17.526Z,12.24
2023-02-25T05:38:46.086Z,12.17
2023-02-25T05:41:15.015Z,11.80
2023-02-25T05:43:45.200Z,11.66
2023-02-25T05:46:14.855Z,11.18
2023-02-25T05:48:45.898Z,11.49
2023-02-25T05:51:16.478Z,12.08
2023-02-25T05:53:45.171Z,11.72
2023-02-25T05:56:14.921Z,12.19
2023-02-25T05:58:43.399Z,11.19
2023-02-25T06:01:13.784Z,12.05
2023-02-25T06:03:44.604Z,11.84
2023-02-25T06:06:14.798Z,11.81
2023-02-25T06:08:44.246Z,11.63
2023-02-25T06:11:14.580Z,12.08
2023-02-25T06:13:42.816Z,11.71
2023-02-25T06:16:10.729Z,11.77
2023-02-25T06:18:39.737Z,11.76
2023-02-25T06:21:11.255Z,12.16
2023-02-25T06:23:40.726Z,11.95
2023-02-25T06:26:11.023Z,11.15
2023-02-25T06:28:39.495Z,11.92
2023-02-25T06:31:09.357Z,11.97
2023-02-25T06:33:37.542Z,11.66
2023-02-25T06:36:09.175Z,11.42
2023-02-25T06:38:37.454Z,12.15
2023-02-25T06:41:07.585Z,12.95
2023-02-25T06:43:35.884Z,12.34
2023-02-25T06:46:08.129Z,11.84
2023-02-25T06:48:36.108Z,12.02
2023-02-25T06:51:08.998Z,11.82
2023-02-25T06:53:38.917Z,12.72
2023-02-25T06:56:08.242Z,12.43
2023-02-25T06:58:37.078Z,12.13
2023-02-25T07:01:07.141Z,11.66
2023-02-25T07:03:35.228Z,11.76
2023-02-25T07:06:03.206Z,12.36
2023-02-25T07:08:31.110Z,12.35
2023-02-25T07:11:15.030Z,12.40
2023-02-25T07:13:44.485Z,12.62
2023-02-25T07:16:13.199Z,12.21
2023-02-25T07:18:41.738Z,12.27
2023-02-25T07:21:09.711Z,11.95
2023-02-25T07:23:37.499Z,11.90
2023-02-25T07:26:06.090Z,12.75
2023-02-25T07:28:35.677Z,12.25
2023-02-25T07:31:06.071Z,11.87
2023-02-25T07:33:34.050Z,12.52
2023-02-25T07:36:02.363Z,12.23
2023-02-25T07:38:30.161Z,12.36
2023-02-25T07:40:58.744Z,11.25
2023-02-25T07:43:26.605Z,12.39
2023-02-25T07:45:58.018Z,12.23
2023-02-25T07:48:25.935Z,12.09
2023-02-25T07:50:54.008Z,12.33
2023-02-25T07:53:22.952Z,12.43
2023-02-25T07:55:51.519Z,12.80
2023-02-25T07:58:19.361Z,12.71
2023-02-25T08:00:47.366Z,13.15
2023-02-25T08:03:16.580Z,12.88
2023-02-25T08:05:44.470Z,13.18
2023-02-25T08:08:13.205Z,13.39
2023-02-25T08:10:41.110Z,12.79
2023-02-25T08:13:09.060Z,12.39
2023-02-25T08:15:40.939Z,12.10
2023-02-25T08:18:09.001Z,12.79
2023-02-25T08:20:38.616Z,12.72
2023-02-25T08:23:06.972Z,12.75
2023-02-25T08:25:34.812Z,12.70
2023-02-25T08:28:02.742Z,12.82
2023-02-25T08:30:30.636Z,13.13
2023-02-25T08:32:58.479Z,13.48
2023-02-25T08:35:27.089Z,13.46
2023-02-25T08:37:56.243Z,13.21
2023-02-25T08:40:23.971Z,13.50
2023-02-25T08:42:51.759Z,14.41
2023-02-25T08:45:21.942Z,13.89
2023-02-25T08:47:49.991Z,13.64
2023-02-25T08:50:18.489Z,14.16
2023-02-25T08:52:46.861Z,14.11
2023-02-25T08:55:16.414Z,13.91
2023-02-25T08:57:44.815Z,13.73
2023-02-25T09:00:15.340Z,14.01
2023-02-25T09:02:44.946Z,14.22
2023-02-25T09:05:13.106Z,14.23
2023-02-25T09:07:40.998Z,14.53
2023-02-25T09:10:10.256Z,14.10
2023-02-25T09:12:40.626Z,14.38
2023-02-25T09:15:10.031Z,14.51
2023-02-25T09:17:37.936Z,13.22
2023-02-25T09:20:08.164Z,13.87
2023-02-25T09:22:36.097Z,13.14
2023-02-25T09:25:04.609Z,12.14
2023-02-25T09:27:32.560Z,12.29
2023-02-25T09:30:01.845Z,11.82
2023-02-25T09:32:29.739Z,12.12
2023-02-25T09:34:59.592Z,12.88
2023-02-25T09:37:28.525Z,13.46
2023-02-25T09:39:56.396Z,13.40
2023-02-25T09:42:27.925Z,14.42
2023-02-25T09:45:00.736Z,14.66
2023-02-25T09:47:34.964Z,15.64
2023-02-25T09:50:08.045Z,14.74
2023-02-25T09:52:40.105Z,14.49
2023-02-25T09:55:16.881Z,14.72
2023-02-25T09:57:46.814Z,15.52
2023-02-25T10:00:18.619Z,14.96
2023-02-25T10:02:53.900Z,14.96
2023-02-25T10:05:27.102Z,15.34
2023-02-25T10:08:02.711Z,14.90
2023-02-25T10:10:38.301Z,13.98
2023-02-25T10:13:18.080Z,15.32
2023-02-25T10:15:56.964Z,14.86
2023-02-25T10:18:42.545Z,12.40
2023-02-25T10:21:23.975Z,11.64
2023-02-25T10:24:03.732Z,11.77
2023-02-25T10:26:35.833Z,11.11
2023-02-25T10:29:08.639Z,11.56
2023-02-25T10:31:37.863Z,12.47
2023-02-25T10:34:21.757Z,12.57
2023-02-25T10:36:55.569Z,12.21
2023-02-25T10:39:24.031Z,12.02
2023-02-25T10:41:52.376Z,12.64
2023-02-25T10:44:20.442Z,12.21
2023-02-25T10:46:54.400Z,13.28
2023-02-25T10:49:26.389Z,13.76
2023-02-25T10:52:03.941Z,13.55
2023-02-25T10:54:33.253Z,14.01
2023-02-25T10:57:02.428Z,14.67
2023-02-25T10:59:33.461Z,15.17
2023-02-25T11:02:02.507Z,14.65
2023-02-25T11:04:35.889Z,15.94
2023-02-25T11:07:24.600Z,14.97
2023-02-25T11:10:09.319Z,15.12
2023-02-25T11:12:41.996Z,14.47
2023-02-25T11:15:42.077Z,16.07
2023-02-25T11:18:21.103Z,13.93
2023-02-25T11:20:54.170Z,14.25
2023-02-25T11:23:24.869Z,14.12
2023-02-25T11:25:53.983Z,14.94
2023-02-25T11:28:30.177Z,15.78
2023-02-25T11:31:08.379Z,15.35
2023-02-25T11:33:38.970Z,15.48
2023-02-25T11:36:09.079Z,14.45
2023-02-25T11:38:38.203Z,14.32
2023-02-25T11:41:17.835Z,14.83
2023-02-25T11:43:45.861Z,15.25
2023-02-25T11:46:23.147Z,15.49
2023-02-25T11:48:54.105Z,16.73
2023-02-25T11:51:30.492Z,16.41
2023-02-25T11:54:09.245Z,17.10
2023-02-25T11:56:39.658Z,19.86
2023-02-25T11:59:21.992Z,18.38
2023-02-25T12:02:12.423Z,16.61
2023-02-25T12:05:16.763Z,15.24
2023-02-25T12:08:14.059Z,15.10
2023-02-25T12:11:13.207Z,15.71
2023-02-25T12:14:23.105Z,15.02
2023-02-25T12:17:26.216Z,14.87
2023-02-25T12:20:33.164Z,15.10
2023-02-25T12:23:41.477Z,16.17
2023-02-25T12:26:15.567Z,16.27
2023-02-25T12:29:01.022Z,16.97
2023-02-25T12:32:06.480Z,15.45
2023-02-25T12:35:01.142Z,14.36
2023-02-25T12:38:03.064Z,13.72
2023-02-25T12:40:43.215Z,13.83
2023-02-25T12:43:28.280Z,13.51
2023-02-25T12:46:22.168Z,15.34
2023-02-25T12:49:12.253Z,16.57
2023-02-25T12:52:16.483Z,16.73
2023-02-25T12:55:04.815Z,16.66
2023-02-25T12:57:49.777Z,16.58
2023-02-25T13:00:44.134Z,16.51
2023-02-25T13:03:25.585Z,19.62
2023-02-25T13:06:29.468Z,17.90
2023-02-25T13:09:13.027Z,16.05
2023-02-25T13:12:11.012Z,17.98
2023-02-25T13:14:56.575Z,21.69
2023-02-25T13:17:38.954Z,19.75
2023-02-25T13:20:44.808Z,19.01
2023-02-25T13:23:34.982Z,17.60
2023-02-25T13:26:21.760Z,16.94
2023-02-25T13:29:04.443Z,17.40
2023-02-25T13:31:43.802Z,16.32
2023-02-25T13:34:23.217Z,15.29
2023-02-25T13:37:09.601Z,14.64
2023-02-25T13:39:53.228Z,15.00
2023-02-25T13:42:41.355Z,15.16
2023-02-25T13:45:32.842Z,15.78
2023-02-25T13:48:31.197Z,15.33
2023-02-25T13:51:21.741Z,14.77
2023-02-25T13:54:07.720Z,14.97
2023-02-25T13:56:56.431Z,13.87
2023-02-25T13:59:45.250Z,13.90
2023-02-25T14:02:36.829Z,15.57
2023-02-25T14:05:38.567Z,16.67
2023-02-25T14:08:22.065Z,14.51
2023-02-25T14:10:55.636Z,17.00
2023-02-25T14:13:41.712Z,15.68
2023-02-25T14:16:28.862Z,15.02
2023-02-25T14:19:28.064Z,15.62
2023-02-25T14:22:22.443Z,17.38
2023-02-25T14:25:00.796Z,19.71
2023-02-25T14:27:36.260Z,18.80
2023-02-25T14:30:25.403Z,16.10
2023-02-25T14:33:04.404Z,14.82
2023-02-25T14:35:47.135Z,14.26
2023-02-25T14:38:18.830Z,17.02
2023-02-25T14:40:57.019Z,20.54
2023-02-25T14:43:32.204Z,21.25
2023-02-25T14:46:05.407Z,21.19
2023-02-25T14:48:39.925Z,20.22
2023-02-25T14:51:31.921Z,20.51
2023-02-25T14:54:29.048Z,18.83
2023-02-25T14:57:16.811Z,21.28
2023-02-25T15:00:14.232Z,21.57
2023-02-25T15:03:24.510Z,24.44
2023-02-25T15:06:07.883Z,26.31
2023-02-25T15:09:09.158Z,24.53
2023-02-25T15:11:51.211Z,23.49
2023-02-25T15:15:07.023Z,17.32
2023-02-25T15:18:24.836Z,16.64
2023-02-25T15:20:53.310Z,16.26
2023-02-25T15:23:23.514Z,16.90
2023-02-25T15:25:53.989Z,16.93
2023-02-25T15:28:41.380Z,15.99
2023-02-25T15:31:29.966Z,16.41
2023-02-25T15:34:34.782Z,16.92
2023-02-25T15:37:23.631Z,16.18
2023-02-25T15:39:56.043Z,14.76
2023-02-25T15:42:52.963Z,14.12
2023-02-25T15:45:47.136Z,15.08
2023-02-25T15:48:35.631Z,15.13
2023-02-25T15:51:06.298Z,14.63
2023-02-25T15:53:48.046Z,14.90
2023-02-25T15:56:57.770Z,14.69
2023-02-25T15:59:46.676Z,14.11
2023-02-25T16:02:40.594Z,14.15
2023-02-25T16:05:20.381Z,14.37
2023-02-25T16:07:50.903Z,13.67
2023-02-25T16:10:26.556Z,13.22
2023-02-25T16:12:57.338Z,14.22
2023-02-25T16:15:33.077Z,14.18
2023-02-25T16:18:15.268Z,16.47
2023-02-25T16:20:47.423Z,15.56
2023-02-25T16:23:16.617Z,14.13
2023-02-25T16:25:53.019Z,14.83
2023-02-25T16:28:31.472Z,14.61
2023-02-25T16:31:07.508Z,13.74
2023-02-25T16:33:46.410Z,12.86
2023-02-25T16:36:21.349Z,12.12
2023-02-25T16:38:59.026Z,12.26
2023-02-25T16:41:37.608Z,12.24
2023-02-25T16:44:07.049Z,12.31
2023-02-25T16:46:41.409Z,11.72
2023-02-25T16:49:18.917Z,11.85
2023-02-25T16:51:48.275Z,12.73
2023-02-25T16:54:18.811Z,12.07
2023-02-25T16:56:48.977Z,12.40
2023-02-25T16:59:19.613Z,11.78
2023-02-25T17:01:54.743Z,12.22
2023-02-25T17:04:26.110Z,12.24
2023-02-25T17:07:17.744Z,11.82
2023-02-25T17:09:48.380Z,11.47
2023-02-25T17:12:20.609Z,11.66
2023-02-25T17:14:51.881Z,10.79
2023-02-25T17:17:26.297Z,11.40
2023-02-25T17:19:56.621Z,10.73
2023-02-25T17:22:26.439Z,10.61
2023-02-25T17:24:58.333Z,10.80
2023-02-25T17:27:28.426Z,11.18
2023-02-25T17:29:56.947Z,10.20
2023-02-25T17:32:27.225Z,11.09
2023-02-25T17:35:00.902Z,10.44
2023-02-25T17:37:30.632Z,10.60
2023-02-25T17:40:00.319Z,10.96
2023-02-25T17:42:33.843Z,10.38
2023-02-25T17:45:03.249Z,10.68
2023-02-25T17:47:33.696Z,10.25
2023-02-25T17:50:22.428Z,10.55
2023-02-25T17:52:51.665Z,10.45
2023-02-25T17:55:24.925Z,11.04
2023-02-25T17:57:54.801Z,10.60
2023-02-25T18:00:26.055Z,10.82
2023-02-25T18:03:15.884Z,9.84
2023-02-25T18:05:51.367Z,8.94
2023-02-25T18:08:21.190Z,10.18
2023-02-25T18:10:55.905Z,10.54
2023-02-25T18:13:33.794Z,10.00
2023-02-25T18:16:38.475Z,10.98
2023-02-25T18:19:17.377Z,10.19
2023-02-25T18:21:46.708Z,10.67
2023-02-25T18:24:24.347Z,9.95
2023-02-25T18:27:24.557Z,10.29
2023-02-25T18:29:52.624Z,10.77
2023-02-25T18:32:20.662Z,10.25
2023-02-25T18:34:48.623Z,10.14
2023-02-25T18:37:20.386Z,9.78
2023-02-25T18:39:49.181Z,10.19
2023-02-25T18:42:18.688Z,10.12
2023-02-25T18:44:47.782Z,10.35
2023-02-25T18:47:16.864Z,10.34
2023-02-25T18:49:45.800Z,10.34
2023-02-25T18:52:22.506Z,10.22
2023-02-25T18:54:50.438Z,10.40
2023-02-25T18:57:22.618Z,9.86
2023-02-25T18:59:50.854Z,10.15
2023-02-25T19:02:28.053Z,9.83
2023-02-25T19:04:56.278Z,10.29
2023-02-25T19:07:27.518Z,9.83
2023-02-25T19:09:56.254Z,9.95
2023-02-25T19:12:25.363Z,9.34
2023-02-25T19:14:59.706Z,9.29
2023-02-25T19:17:28.135Z,8.96
2023-02-25T19:19:56.370Z,8.83
2023-02-25T19:22:26.173Z,9.36
2023-02-25T19:24:54.128Z,9.26
2023-02-25T19:27:24.854Z,9.40
2023-02-25T19:29:54.149Z,9.03
2023-02-25T19:32:22.478Z,8.99
2023-02-25T19:34:50.694Z,9.44
2023-02-25T19:37:21.153Z,8.80
2023-02-25T19:39:50.348Z,8.60
2023-02-25T19:42:18.126Z,9.24
2023-02-25T19:44:46.106Z,9.55
2023-02-25T19:47:14.813Z,9.44
2023-02-25T19:49:42.575Z,9.07
2023-02-25T19:52:10.917Z,9.23
2023-02-25T19:54:38.750Z,9.34
2023-02-25T19:57:07.983Z,8.88
2023-02-25T19:59:35.833Z,9.39
2023-02-25T20:02:03.744Z,9.38
2023-02-25T20:04:32.215Z,9.45
2023-02-25T20:07:00.548Z,9.62
2023-02-25T20:09:28.311Z,9.53
2023-02-25T20:11:56.147Z,9.58
2023-02-25T20:14:27.987Z,9.66
2023-02-25T20:16:57.014Z,9.59
2023-02-25T20:19:27.867Z,9.43
2023-02-25T20:21:55.752Z,9.45
2023-02-25T20:24:23.595Z,9.40
2023-02-25T20:26:51.496Z,9.50
2023-02-25T20:29:19.468Z,9.36
2023-02-25T20:31:49.316Z,9.31
2023-02-25T20:34:20.719Z,9.59
2023-02-25T20:36:54.019Z,9.27
2023-02-25T20:39:40.387Z,9.50
2023-02-25T20:42:13.454Z,9.30
2023-02-25T20:44:41.879Z,8.97
2023-02-25T20:47:17.795Z,9.13
2023-02-25T20:49:45.951Z,9.60
2023-02-25T20:52:16.849Z,9.91
2023-02-25T20:54:44.752Z,9.94
2023-02-25T20:57:15.438Z,10.41
2023-02-25T20:59:43.634Z,9.68
2023-02-25T21:02:13.403Z,9.91
2023-02-25T21:04:41.443Z,9.66
2023-02-25T21:07:10.635Z,9.47
2023-02-25T21:09:38.676Z,8.90
2023-02-25T21:12:07.614Z,9.73
2023-02-25T21:14:35.991Z,9.39
2023-02-25T21:17:06.001Z,9.25
2023-02-25T21:19:35.201Z,9.03
2023-02-25T21:22:03.225Z,9.64
2023-02-25T21:24:33.573Z,9.28
2023-02-25T21:27:01.725Z,9.69
2023-02-25T21:29:29.951Z,9.54
2023-02-25T21:31:57.804Z,9.69
2023-02-25T21:34:26.093Z,9.84
2023-02-25T21:36:57.532Z,9.52
2023-02-25T21:39:26.402Z,9.50
2023-02-25T21:41:54.296Z,8.75
2023-02-25T21:44:22.300Z,8.63
2023-02-25T21:46:50.146Z,9.09
2023-02-25T21:49:18.048Z,9.17
2023-02-25T21:51:45.901Z,8.80
2023-02-25T21:54:15.201Z,8.75
2023-02-25T21:56:43.061Z,8.58
2023-02-25T21:59:10.979Z,8.76
2023-02-25T22:01:40.575Z,8.91
2023-02-25T22:04:09.700Z,8.21
2023-02-25T22:06:38.135Z,8.80
2023-02-25T22:09:06.935Z,8.67
2023-02-25T22:11:37.851Z,8.09
2023-02-25T22:14:08.179Z,8.21
2023-02-25T22:16:36.790Z,8.32
2023-02-25T22:19:05.053Z,8.38
2023-02-25T22:21:35.494Z,8.10
2023-02-25T22:24:05.240Z,8.50
2023-02-25T22:26:34.792Z,8.41
2023-02-25T22:29:06.925Z,8.62
2023-02-25T22:31:35.261Z,8.73
2023-02-25T22:34:04.036Z,8.93
2023-02-25T22:36:32.032Z,8.71
2023-02-25T22:38:59.842Z,8.20
2023-02-25T22:41:29.572Z,8.16
2023-02-25T22:43:58.999Z,7.85
2023-02-25T22:46:30.358Z,8.12
2023-02-25T22:48:58.979Z,8.50
2023-02-25T22:51:30.478Z,8.67
2023-02-25T22:53:58.531Z,8.77
2023-02-25T22:56:26.961Z,8.49
2023-02-25T22:58:55.533Z,8.75
2023-02-25T23:01:24.692Z,8.16
2023-02-25T23:03:56.361Z,8.41
2023-02-25T23:06:42.300Z,7.65
2023-02-25T23:09:11.537Z,8.01
2023-02-25T23:11:41.935Z,8.10
2023-02-25T23:14:09.825Z,8.01
2023-02-25T23:16:40.254Z,8.30
2023-02-25T23:19:11.167Z,8.08
2023-02-25T23:21:39.518Z,8.52
2023-02-25T23:24:08.801Z,8.26
2023-02-25T23:26:40.062Z,8.32
2023-02-25T23:29:09.868Z,8.16
2023-02-25T23:31:40.098Z,8.16
2023-02-25T23:34:11.914Z,7.56
2023-02-25T23:36:42.824Z,7.78
2023-02-25T23:39:12.439Z,7.82
2023-02-25T23:41:40.662Z,7.95
2023-02-25T23:44:09.511Z,8.14
2023-02-25T23:46:38.182Z,7.76
2023-02-25T23:49:07.791Z,7.16
2023-02-25T23:51:37.681Z,7.80
2023-02-25T23:54:06.835Z,7.74
2023-02-25T23:56:35.426Z,8.40
2023-02-25T23:59:04.289Z,7.99
